Manistique, MI

7:46 AM EDT on August 19, 2017 (GMT -0400)
Schoolcraft County

Weather History for KISQ - July, 2013

Change the Weather History Date:

Tuesday, July 23, 2013

  Actual Average Record
Temperature  
Mean Temperature 58 °F -  
Max Temperature 67 °F 76 °F 92 °F (1983)
Min Temperature 47 °F 57 °F 33 °F (2004)
Degree Days  
Heating Degree Days 8    
Growing Degree Days 8 (Base 50)    
Moisture  
Dew Point 50 °F    
Average Humidity 75    
Maximum Humidity 96    
Minimum Humidity 49    
Precipitation  
Precipitation 0.24 in - - ()
Sea Level Pressure  
Sea Level Pressure 29.81 in    
Wind  
Wind Speed 10 mph (NW)    
Max Wind Speed 26 mph    
Max Gust Speed 34 mph    
Visibility 10 miles    
Events Rain    
Averages and records for this station are not official NWS values.
T = Trace of Precipitation, MM = Missing Value Source: NWS Daily Summary

Daily Weather History Graph

Daily Weather History Graph

Search for Another Location

Airport or City:

Trip Planner

Search our weather history database for the weather conditions in past years. The results will help you decide how hot, cold, wet, or windy it might be!

Date:

Astronomy

Jul. 23, 2013 Rise Set
Actual Time 6:17 AM EDT 9:24 PM EDT
Civil Twilight 5:41 AM EDT 10:00 PM EDT
Nautical Twilight 4:55 AM EDT 10:46 PM EDT
Astronomical Twilight 3:58 AM EDT 11:42 PM EDT
Moon 9:43 PM EDT (7/23) 7:32 AM EDT (7/23)
Length of Visible Light 16h 18m
Length of Day
15h 07m
Full, 99% of the Moon is Illuminated
Jul 23
Full
Jul 29
Last Quarter
Aug 6
New
Aug 14
First Quarter
Aug 20
Full

Hourly Weather History & Observations

Time (EDT) Temp. Dew Point Humidity Pressure Visibility Wind Dir Wind Speed Gust Speed Precip Events Conditions
12:15 AM 67.1 °F 65.8 °F 96% 29.66 in 5.0 mi NW 4.6 mph - 0.02 in Rain Light Rain
12:35 AM 66.6 °F 65.1 °F 95% 29.65 in 10.0 mi NW 6.9 mph - 0.04 in   Overcast
12:54 AM 65.3 °F 62.6 °F 91% 29.65 in 10.0 mi NW 8.1 mph - 0.07 in   Overcast
1:15 AM 64.6 °F 61.7 °F 90% 29.66 in 10.0 mi WNW 6.9 mph - 0.02 in   Overcast
1:34 AM 63.7 °F 61.3 °F 92% 29.67 in 10.0 mi NW 6.9 mph - 0.05 in   Overcast
1:55 AM 63.1 °F 60.8 °F 92% 29.66 in 10.0 mi NW 6.9 mph - 0.08 in   Mostly Cloudy
2:15 AM 62.8 °F 59.9 °F 90% 29.66 in 10.0 mi NW 6.9 mph - 0.03 in   Mostly Cloudy
2:34 AM 62.2 °F 59.4 °F 90% 29.67 in 10.0 mi NW 5.8 mph - 0.05 in   Mostly Cloudy
2:55 AM 62.1 °F 59.0 °F 90% 29.67 in 10.0 mi NW 6.9 mph - 0.08 in   Overcast
3:15 AM 61.3 °F 58.3 °F 90% 29.66 in 10.0 mi NW 9.2 mph - 0.01 in   Overcast
3:34 AM 60.6 °F 57.6 °F 90% 29.66 in 10.0 mi NW 8.1 mph - 0.01 in   Overcast
3:55 AM 59.5 °F 56.8 °F 91% 29.67 in 10.0 mi NW 5.8 mph - 0.01 in   Scattered Clouds
4:15 AM 59.0 °F 56.3 °F 91% 29.68 in 10.0 mi NW 8.1 mph - N/A   Clear
4:34 AM 58.3 °F 56.3 °F 93% 29.68 in 10.0 mi NW 9.2 mph - N/A   Clear
4:55 AM 57.7 °F 55.8 °F 93% 29.69 in 10.0 mi NW 6.9 mph - N/A   Clear
5:14 AM 57.0 °F 55.2 °F 94% 29.70 in 10.0 mi NW 5.8 mph - N/A   Clear
5:35 AM 56.3 °F 54.7 °F 94% 29.71 in 10.0 mi WNW 4.6 mph - N/A   Clear
5:55 AM 55.4 °F 54.1 °F 96% 29.72 in 10.0 mi NW 5.8 mph - N/A   Clear
6:14 AM 54.5 °F 53.1 °F 95% 29.72 in 10.0 mi NNW 4.6 mph - N/A   Clear
6:35 AM 54.3 °F 52.5 °F 94% 29.73 in 10.0 mi NNW 3.5 mph - N/A   Clear
6:55 AM 54.1 °F 52.7 °F 95% 29.73 in 10.0 mi Calm Calm - N/A   Clear
7:14 AM 55.4 °F 53.4 °F 93% 29.73 in 10.0 mi NW 3.5 mph - N/A   Scattered Clouds
7:35 AM 56.7 °F 54.3 °F 92% 29.74 in 10.0 mi WNW 4.6 mph - N/A   Scattered Clouds
7:54 AM 56.7 °F 52.7 °F 87% 29.74 in 10.0 mi NW 11.5 mph 16.1 mph N/A   Scattered Clouds
8:14 AM 56.7 °F 51.8 °F 84% 29.74 in 10.0 mi NW 10.4 mph 17.3 mph N/A   Mostly Cloudy
8:35 AM 56.7 °F 52.0 °F 84% 29.74 in 10.0 mi NW 9.2 mph - N/A   Overcast
8:54 AM 56.8 °F 52.3 °F 85% 29.74 in 10.0 mi NW 9.2 mph - N/A   Overcast
9:15 AM 57.0 °F 51.6 °F 82% 29.75 in 10.0 mi NW 11.5 mph 20.7 mph N/A   Overcast
9:35 AM 57.7 °F 51.8 °F 81% 29.75 in 10.0 mi NW 10.4 mph 16.1 mph N/A   Overcast
9:54 AM 57.9 °F 50.4 °F 76% 29.75 in 10.0 mi NW 17.3 mph 26.5 mph N/A   Overcast
10:15 AM 57.2 °F 49.8 °F 76% 29.76 in 10.0 mi NW 13.8 mph 29.9 mph N/A   Overcast
10:35 AM 57.0 °F 49.8 °F 77% 29.78 in 10.0 mi NW 18.4 mph 25.3 mph N/A   Overcast
10:54 AM 54.9 °F 50.2 °F 84% 29.79 in 7.0 mi NNW 13.8 mph 26.5 mph N/A Rain Light Rain
11:15 AM 57.0 °F 48.6 °F 73% 29.79 in 10.0 mi NW 18.4 mph 29.9 mph N/A   Overcast
11:34 AM 58.5 °F 48.4 °F 69% 29.81 in 10.0 mi NNW 16.1 mph 26.5 mph N/A   Overcast
11:55 AM 57.9 °F 47.8 °F 69% 29.82 in 10.0 mi NNW 20.7 mph 29.9 mph N/A   Overcast
12:15 PM 56.5 °F 46.0 °F 68% 29.83 in 10.0 mi NNW 15.0 mph 33.4 mph N/A   Overcast
12:34 PM 57.2 °F 46.4 °F 67% 29.83 in 10.0 mi NNW 26.5 mph 34.5 mph N/A   Overcast
12:55 PM 57.7 °F 46.9 °F 67% 29.85 in 10.0 mi NNW 21.9 mph 32.2 mph N/A   Overcast
1:15 PM 57.2 °F 46.4 °F 67% 29.86 in 10.0 mi NNW 24.2 mph 31.1 mph N/A   Overcast
1:34 PM 57.6 °F 45.9 °F 65% 29.86 in 10.0 mi North 23.0 mph 29.9 mph N/A   Overcast
1:55 PM 57.6 °F 45.7 °F 65% 29.86 in 10.0 mi NNW 20.7 mph 31.1 mph N/A   Overcast
2:14 PM 57.7 °F 45.9 °F 65% 29.87 in 10.0 mi NNW 23.0 mph 31.1 mph N/A   Overcast
2:34 PM 59.5 °F 46.8 °F 63% 29.88 in 10.0 mi North 17.3 mph 27.6 mph N/A   Overcast
2:55 PM 60.8 °F 46.6 °F 59% 29.88 in 10.0 mi North 16.1 mph 28.8 mph N/A   Overcast
3:14 PM 59.0 °F 45.5 °F 61% 29.90 in 10.0 mi NNW 16.1 mph 29.9 mph N/A   Overcast
3:35 PM 60.3 °F 46.0 °F 59% 29.90 in 10.0 mi NNW 19.6 mph 33.4 mph N/A   Overcast
3:55 PM 59.2 °F 45.1 °F 60% 29.91 in 10.0 mi NNW 19.6 mph 26.5 mph N/A   Overcast
4:14 PM 60.4 °F 45.1 °F 57% 29.90 in 10.0 mi NNW 18.4 mph 27.6 mph N/A   Overcast
4:35 PM 60.1 °F 44.6 °F 57% 29.91 in 10.0 mi North 18.4 mph 28.8 mph N/A   Mostly Cloudy
4:55 PM 61.9 °F 43.7 °F 51% 29.91 in 10.0 mi NNW 18.4 mph 28.8 mph N/A   Scattered Clouds
5:14 PM 61.5 °F 43.0 °F 51% 29.91 in 10.0 mi North 19.6 mph 28.8 mph N/A   Scattered Clouds
5:35 PM 61.9 °F 43.5 °F 51% 29.91 in 10.0 mi NNW 18.4 mph 31.1 mph N/A   Clear
5:54 PM 61.7 °F 42.8 °F 50% 29.91 in 10.0 mi NNW 19.6 mph 31.1 mph N/A   Clear
6:14 PM 61.5 °F 42.1 °F 49% 29.91 in 10.0 mi NNW 20.7 mph 29.9 mph N/A   Clear
6:35 PM 61.9 °F 43.0 °F 50% 29.92 in 10.0 mi NNW 15.0 mph 26.5 mph N/A   Clear
6:54 PM 61.7 °F 42.3 °F 49% 29.92 in 10.0 mi NNW 18.4 mph 26.5 mph N/A   Clear
7:15 PM 61.3 °F 42.8 °F 51% 29.92 in 10.0 mi NNW 15.0 mph 24.2 mph N/A   Clear
7:34 PM 61.0 °F 42.8 °F 51% 29.93 in 10.0 mi NNW 11.5 mph 24.2 mph N/A   Clear
7:54 PM 60.6 °F 43.0 °F 52% 29.93 in 10.0 mi NNW 11.5 mph 24.2 mph N/A   Clear
8:14 PM 60.1 °F 43.2 °F 54% 29.93 in 10.0 mi NNW 16.1 mph 21.9 mph N/A   Clear
8:34 PM 59.0 °F 43.3 °F 56% 29.93 in 10.0 mi NNW 10.4 mph 17.3 mph N/A   Clear
8:55 PM 57.6 °F 43.9 °F 60% 29.94 in 10.0 mi NNW 9.2 mph - N/A   Clear
9:14 PM 56.1 °F 44.4 °F 65% 29.94 in 10.0 mi NW 8.1 mph - N/A   Clear
9:35 PM 54.9 °F 44.6 °F 68% 29.94 in 10.0 mi NW 6.9 mph - N/A   Clear
9:55 PM 53.6 °F 45.0 °F 73% 29.95 in 10.0 mi NW 5.8 mph - N/A   Clear
10:14 PM 52.0 °F 45.0 °F 77% 29.96 in 10.0 mi NW 5.8 mph - N/A   Clear
10:35 PM 50.0 °F 44.8 °F 82% 29.96 in 10.0 mi WNW 5.8 mph - N/A   Clear
10:55 PM 50.0 °F 45.0 °F 83% 29.97 in 10.0 mi WNW 5.8 mph - N/A   Clear
11:14 PM 49.3 °F 44.8 °F 84% 29.97 in 10.0 mi WNW 4.6 mph - N/A   Clear
11:35 PM 48.6 °F 44.6 °F 86% 29.97 in 10.0 mi NW 5.8 mph - N/A   Clear
11:54 PM 47.8 °F 44.6 °F 89% 29.98 in 10.0 mi WNW 4.6 mph - N/A   Clear